createdAt,value
2018-03-14T00:01:57.173Z,89.30
2018-03-14T00:04:24.815Z,89.30
2018-03-14T00:06:52.489Z,89.20
2018-03-14T00:09:20.159Z,89.20
2018-03-14T00:11:47.858Z,89.20
2018-03-14T00:14:15.519Z,89.30
2018-03-14T00:16:43.155Z,88.90
2018-03-14T00:19:11.601Z,89.30
2018-03-14T00:21:39.232Z,89.30
2018-03-14T00:24:06.940Z,89.30
2018-03-14T00:26:35.271Z,89.40
2018-03-14T00:29:02.943Z,89.50
2018-03-14T00:31:30.638Z,89.50
2018-03-14T00:33:58.272Z,89.50
2018-03-14T00:36:25.947Z,89.50
2018-03-14T00:38:53.608Z,89.60
2018-03-14T00:41:21.289Z,89.70
2018-03-14T00:43:48.976Z,89.90
2018-03-14T00:46:16.703Z,89.90
2018-03-14T00:48:44.371Z,90.30
2018-03-14T00:51:12.082Z,90.00
2018-03-14T00:53:39.749Z,90.00
2018-03-14T00:56:07.416Z,90.00
2018-03-14T00:58:35.111Z,90.00
2018-03-14T01:01:02.776Z,90.10
2018-03-14T01:03:30.447Z,90.10
2018-03-14T01:05:58.101Z,90.20
2018-03-14T01:08:25.806Z,90.20
2018-03-14T01:10:54.247Z,90.20
2018-03-14T01:13:22.747Z,90.20
2018-03-14T01:15:50.446Z,90.20
2018-03-14T01:18:18.072Z,90.30
2018-03-14T01:20:45.775Z,90.30
2018-03-14T01:23:13.435Z,90.30
2018-03-14T01:25:41.132Z,90.30
2018-03-14T01:28:08.851Z,90.70
2018-03-14T01:30:37.254Z,90.40
2018-03-14T01:33:04.935Z,90.40
2018-03-14T01:35:33.358Z,90.50
2018-03-14T01:38:01.059Z,90.40
2018-03-14T01:40:28.717Z,90.80
2018-03-14T01:42:57.220Z,90.50
2018-03-14T01:45:25.648Z,90.50
2018-03-14T01:47:53.336Z,90.50
2018-03-14T01:50:21.000Z,90.50
2018-03-14T01:52:49.513Z,90.60
2018-03-14T01:55:17.233Z,90.60
2018-03-14T01:57:44.887Z,90.60
2018-03-14T02:00:13.347Z,90.60
2018-03-14T02:02:41.016Z,90.60
2018-03-14T02:05:08.717Z,90.60
2018-03-14T02:07:36.357Z,90.70
2018-03-14T02:10:04.856Z,90.70
2018-03-14T02:12:33.276Z,90.70
2018-03-14T02:15:00.955Z,90.70
2018-03-14T02:17:29.354Z,90.70
2018-03-14T02:19:57.808Z,90.80
2018-03-14T02:22:25.478Z,90.70
2018-03-14T02:24:53.178Z,90.80
2018-03-14T02:27:20.856Z,90.80
2018-03-14T02:29:48.549Z,90.80
2018-03-14T02:32:16.200Z,90.80
2018-03-14T02:34:44.635Z,90.90
2018-03-14T02:37:12.272Z,90.90
2018-03-14T02:39:39.974Z,90.90
2018-03-14T02:42:08.379Z,90.90
2018-03-14T02:44:36.807Z,90.90
2018-03-14T02:47:04.514Z,90.90
2018-03-14T02:49:32.157Z,90.90
2018-03-14T02:51:59.817Z,90.90
2018-03-14T02:54:27.498Z,90.90
2018-03-14T02:56:55.135Z,90.90
2018-03-14T02:59:23.568Z,91.00
2018-03-14T03:01:51.220Z,90.90
2018-03-14T03:04:19.641Z,91.40
2018-03-14T03:06:50.268Z,91.00
2018-03-14T03:09:17.988Z,91.00
2018-03-14T03:11:46.390Z,91.00
2018-03-14T03:14:14.811Z,91.00
2018-03-14T03:16:43.233Z,91.00
2018-03-14T03:19:10.881Z,91.00
2018-03-14T03:21:38.571Z,91.00
2018-03-14T03:24:06.218Z,91.00
2018-03-14T03:26:33.884Z,91.10
2018-03-14T03:29:01.532Z,91.10
2018-03-14T03:31:29.220Z,91.10
2018-03-14T03:33:56.892Z,90.90
2018-03-14T03:36:24.554Z,91.40
2018-03-14T03:38:52.224Z,91.10
2018-03-14T03:41:19.852Z,91.10
2018-03-14T03:43:47.502Z,91.10
2018-03-14T03:46:15.123Z,91.20
2018-03-14T03:48:42.808Z,91.20
2018-03-14T03:51:10.457Z,91.20
2018-03-14T03:53:38.148Z,91.20
2018-03-14T03:56:05.777Z,91.20
2018-03-14T03:58:33.407Z,91.30
2018-03-14T04:01:01.827Z,91.20
2018-03-14T04:03:29.455Z,91.20
2018-03-14T04:05:57.116Z,91.20
2018-03-14T04:08:24.765Z,91.30
2018-03-14T04:10:52.423Z,91.70
2018-03-14T04:13:20.075Z,91.30
2018-03-14T04:15:47.755Z,91.30
2018-03-14T04:18:16.154Z,91.20
2018-03-14T04:20:44.567Z,91.30
2018-03-14T04:23:12.984Z,91.30
2018-03-14T04:25:40.635Z,91.30
2018-03-14T04:28:08.369Z,91.20
2018-03-14T04:30:35.996Z,91.30
2018-03-14T04:33:03.674Z,91.30
2018-03-14T04:35:31.339Z,91.30
2018-03-14T04:37:59.739Z,91.70
2018-03-14T04:40:27.403Z,91.30
2018-03-14T04:42:55.039Z,91.30
2018-03-14T04:45:22.718Z,91.30
2018-03-14T04:47:50.458Z,91.30
2018-03-14T04:50:18.166Z,91.30
2018-03-14T04:52:45.853Z,91.30
2018-03-14T04:55:13.470Z,91.30
2018-03-14T04:57:41.139Z,91.30
2018-03-14T05:00:08.768Z,91.30
2018-03-14T05:02:36.541Z,91.30
2018-03-14T05:05:04.414Z,91.30
2018-03-14T05:07:32.215Z,91.30
2018-03-14T05:09:59.857Z,91.30
2018-03-14T05:12:27.510Z,91.30
2018-03-14T05:14:55.950Z,91.30
2018-03-14T05:17:23.566Z,91.30
2018-03-14T05:19:51.207Z,91.30
2018-03-14T05:22:18.836Z,91.30
2018-03-14T05:24:46.490Z,91.30
2018-03-14T05:27:14.143Z,91.30
2018-03-14T05:29:41.792Z,91.30
2018-03-14T05:32:09.496Z,91.30
2018-03-14T05:34:37.159Z,91.30
2018-03-14T05:37:05.039Z,91.30
2018-03-14T05:39:32.731Z,91.30
2018-03-14T05:42:00.396Z,91.30
2018-03-14T05:44:28.035Z,91.30
2018-03-14T05:46:55.712Z,91.30
2018-03-14T05:49:24.161Z,91.30
2018-03-14T05:51:52.575Z,91.30
2018-03-14T05:54:20.198Z,91.30
2018-03-14T05:56:48.663Z,91.30
2018-03-14T05:59:16.354Z,91.30
2018-03-14T06:01:44.139Z,91.30
2018-03-14T06:04:11.829Z,91.30
2018-03-14T06:06:39.854Z,91.20
2018-03-14T06:09:07.593Z,91.30
2018-03-14T06:11:35.227Z,91.30
2018-03-14T06:14:02.892Z,91.30
2018-03-14T06:16:30.579Z,91.30
2018-03-14T06:18:58.215Z,91.30
2018-03-14T06:21:25.894Z,91.20
2018-03-14T06:23:53.535Z,91.30
2018-03-14T06:26:21.166Z,91.30
2018-03-14T06:32:08.220Z,91.30
2018-03-14T06:34:35.853Z,91.30
2018-03-14T06:37:03.536Z,91.20
2018-03-14T06:39:31.171Z,91.20
2018-03-14T06:41:58.836Z,91.20
2018-03-14T06:44:27.231Z,91.30
2018-03-14T06:46:54.890Z,91.20
2018-03-14T06:49:22.527Z,91.50
2018-03-14T06:51:51.002Z,91.20
2018-03-14T06:54:18.657Z,91.20
2018-03-14T06:56:46.310Z,91.20
2018-03-14T06:59:25.903Z,91.20
2018-03-14T07:02:15.092Z,91.20
2018-03-14T07:05:06.544Z,91.20
2018-03-14T07:07:34.217Z,91.20
2018-03-14T07:10:01.848Z,91.10
2018-03-14T07:15:41.258Z,91.10
2018-03-14T07:18:08.903Z,91.10
2018-03-14T07:20:36.512Z,91.10
2018-03-14T07:23:05.167Z,91.10
2018-03-14T07:28:26.260Z,91.10
2018-03-14T07:30:53.911Z,91.10
2018-03-14T07:33:21.591Z,91.10
2018-03-14T07:44:42.999Z,91.00
2018-03-14T07:47:10.678Z,91.00
2018-03-14T07:49:38.376Z,91.00
2018-03-14T07:52:06.045Z,91.00
2018-03-14T07:54:33.692Z,91.00
2018-03-14T07:57:01.361Z,91.00
2018-03-14T07:59:29.761Z,90.90
2018-03-14T08:01:58.170Z,90.90
2018-03-14T08:04:26.599Z,90.90
2018-03-14T08:06:54.266Z,90.90
2018-03-14T08:09:22.675Z,90.90
2018-03-14T08:11:50.331Z,90.90
2018-03-14T08:14:17.975Z,91.20
2018-03-14T08:16:45.616Z,90.80
2018-03-14T08:19:14.090Z,90.80
2018-03-14T08:21:41.808Z,90.80
2018-03-14T08:24:10.308Z,90.80
2018-03-14T08:26:38.003Z,90.70
2018-03-14T08:29:06.404Z,90.60
2018-03-14T08:31:34.836Z,90.60
2018-03-14T08:34:02.484Z,90.60
2018-03-14T08:36:30.143Z,90.60
2018-03-14T08:38:57.810Z,90.50
2018-03-14T08:41:25.452Z,90.40
2018-03-14T08:43:53.259Z,90.40
2018-03-14T08:46:21.655Z,90.10
2018-03-14T08:48:49.371Z,90.00
2018-03-14T08:51:17.006Z,90.00
2018-03-14T08:53:44.688Z,89.80
2018-03-14T08:56:13.140Z,89.60
2018-03-14T08:58:40.786Z,89.50
2018-03-14T09:01:08.467Z,89.30
2018-03-14T09:03:36.879Z,88.80
2018-03-14T09:06:04.619Z,88.70
2018-03-14T09:08:32.259Z,88.50
2018-03-14T09:10:59.935Z,88.30
2018-03-14T09:13:28.383Z,88.00
2018-03-14T09:15:56.007Z,87.90
2018-03-14T09:18:24.467Z,87.40
2018-03-14T09:20:52.094Z,87.40
2018-03-14T09:23:19.750Z,87.20
2018-03-14T09:25:47.395Z,87.10
2018-03-14T09:28:15.078Z,86.90
2018-03-14T09:30:43.735Z,86.50
2018-03-14T09:33:11.533Z,86.50
2018-03-14T09:35:39.192Z,86.30
2018-03-14T09:38:06.835Z,86.20
2018-03-14T09:40:34.511Z,86.00
2018-03-14T09:43:02.154Z,86.00
2018-03-14T09:45:29.864Z,85.90
2018-03-14T09:47:57.495Z,85.60
2018-03-14T09:50:25.971Z,85.40
2018-03-14T09:52:53.718Z,85.50
2018-03-14T09:55:21.437Z,85.50
2018-03-14T09:57:49.107Z,85.50
2018-03-14T10:00:16.747Z,85.40
2018-03-14T10:02:45.165Z,85.00
2018-03-14T10:05:13.571Z,84.70
2018-03-14T10:07:41.257Z,84.70
2018-03-14T10:10:09.661Z,84.50
2018-03-14T10:12:37.317Z,84.50
2018-03-14T10:15:05.008Z,84.30
2018-03-14T10:17:32.914Z,84.20
2018-03-14T10:20:01.575Z,84.80
2018-03-14T10:22:30.442Z,83.90
2018-03-14T10:25:00.095Z,83.70
2018-03-14T10:27:27.812Z,83.70
2018-03-14T10:30:02.137Z,83.60
2018-03-14T10:32:30.658Z,83.20
2018-03-14T10:34:59.615Z,83.20
2018-03-14T10:37:27.401Z,83.10
2018-03-14T10:39:55.115Z,83.10
2018-03-14T10:42:22.883Z,83.00
2018-03-14T10:44:50.603Z,82.80
2018-03-14T10:47:18.456Z,82.70
2018-03-14T10:49:46.282Z,83.20
2018-03-14T10:52:14.003Z,82.40
2018-03-14T10:54:41.727Z,82.20
2018-03-14T10:57:16.468Z,82.10
2018-03-14T10:59:44.139Z,81.90
2018-03-14T11:02:15.681Z,81.70
2018-03-14T11:04:43.700Z,81.60
2018-03-14T11:07:12.251Z,81.40
2018-03-14T11:09:40.090Z,81.40
2018-03-14T11:12:08.065Z,81.40
2018-03-14T11:14:36.669Z,81.20
2018-03-14T11:17:04.492Z,80.60
2018-03-14T11:19:32.251Z,80.70
2018-03-14T11:21:59.887Z,80.50
2018-03-14T11:24:28.295Z,80.40
2018-03-14T11:26:56.716Z,80.10
2018-03-14T11:29:24.379Z,80.10
2018-03-14T11:31:52.819Z,79.80
2018-03-14T11:34:20.637Z,79.80
2018-03-14T11:36:48.419Z,79.40
2018-03-14T11:39:16.188Z,79.10
2018-03-14T11:41:44.006Z,79.00
2018-03-14T11:44:11.924Z,78.80
2018-03-14T11:46:40.523Z,78.30
2018-03-14T11:49:08.480Z,78.30
2018-03-14T11:51:36.347Z,78.00
2018-03-14T11:54:04.135Z,77.80
2018-03-14T11:56:31.907Z,77.50
2018-03-14T11:58:59.600Z,77.00
2018-03-14T12:01:28.172Z,75.90
2018-03-14T12:03:56.017Z,75.70
2018-03-14T12:06:24.491Z,75.80
2018-03-14T12:08:52.283Z,75.10
2018-03-14T12:11:20.115Z,74.60
2018-03-14T12:13:48.850Z,73.70
2018-03-14T12:16:16.633Z,73.70
2018-03-14T12:18:44.349Z,74.10
2018-03-14T12:21:12.049Z,72.90
2018-03-14T12:23:39.860Z,72.10
2018-03-14T12:26:07.735Z,71.60
2018-03-14T12:28:35.479Z,71.20
2018-03-14T12:31:03.295Z,70.90
2018-03-14T12:33:31.054Z,70.70
2018-03-14T12:35:58.762Z,69.30
2018-03-14T12:38:26.907Z,68.30
2018-03-14T12:40:54.631Z,67.30
2018-03-14T12:43:22.550Z,66.70
2018-03-14T12:45:50.486Z,66.00
2018-03-14T12:48:18.392Z,66.00
2018-03-14T12:50:47.198Z,65.30
2018-03-14T12:53:15.171Z,65.30
2018-03-14T12:55:43.269Z,65.90
2018-03-14T12:58:11.283Z,64.80
2018-03-14T13:00:40.969Z,64.20
2018-03-14T13:03:09.758Z,64.20
2018-03-14T13:05:38.091Z,64.20
2018-03-14T13:08:08.162Z,64.00
2018-03-14T13:10:36.784Z,64.00
2018-03-14T13:13:04.499Z,64.00
2018-03-14T13:15:32.995Z,63.60
2018-03-14T13:18:01.923Z,63.70
2018-03-14T13:20:30.342Z,63.50
2018-03-14T13:22:58.147Z,63.50
2018-03-14T13:25:25.828Z,63.50
2018-03-14T13:27:53.451Z,63.40
2018-03-14T13:30:21.128Z,63.40
2018-03-14T13:32:48.812Z,63.70
2018-03-14T13:35:17.231Z,63.30
2018-03-14T13:37:44.856Z,63.30
2018-03-14T13:40:12.499Z,63.40
2018-03-14T13:42:40.123Z,64.30
2018-03-14T13:45:07.743Z,63.70
2018-03-14T13:47:35.416Z,63.50
2018-03-14T13:50:03.864Z,63.50
2018-03-14T13:52:31.511Z,63.50
2018-03-14T13:54:59.923Z,63.90
2018-03-14T13:57:27.546Z,63.80
2018-03-14T13:59:55.173Z,64.00
2018-03-14T14:02:23.614Z,64.10
2018-03-14T14:04:51.260Z,64.10
2018-03-14T14:07:18.887Z,64.00
2018-03-14T14:09:46.504Z,63.70
2018-03-14T14:12:14.904Z,63.50
2018-03-14T14:14:43.267Z,63.00
2018-03-14T14:17:10.912Z,63.00
2018-03-14T14:19:38.567Z,62.80
2018-03-14T14:22:06.251Z,63.10
2018-03-14T14:24:33.932Z,63.00
2018-03-14T14:27:01.551Z,62.50
2018-03-14T14:29:29.199Z,62.30
2018-03-14T14:31:56.819Z,62.10
2018-03-14T14:34:24.480Z,61.90
2018-03-14T14:36:52.104Z,61.60
2018-03-14T14:39:19.785Z,61.70
2018-03-14T14:41:47.427Z,61.60
2018-03-14T14:44:15.853Z,61.40
2018-03-14T14:46:43.490Z,61.20
2018-03-14T14:49:11.118Z,61.30
2018-03-14T14:51:38.727Z,61.20
2018-03-14T14:54:06.394Z,60.90
2018-03-14T14:56:34.796Z,60.60
2018-03-14T14:59:03.268Z,60.50
2018-03-14T15:01:30.916Z,60.50
2018-03-14T15:03:58.613Z,60.10
2018-03-14T15:06:26.336Z,59.90
2018-03-14T15:08:53.985Z,59.70
2018-03-14T15:11:21.623Z,59.10
2018-03-14T15:13:49.256Z,58.90
2018-03-14T15:16:16.887Z,58.80
2018-03-14T15:18:44.524Z,58.90
2018-03-14T15:21:12.220Z,58.70
2018-03-14T15:23:39.843Z,58.90
2018-03-14T15:26:07.507Z,59.00
2018-03-14T15:28:35.140Z,59.00
2018-03-14T15:31:03.606Z,59.10
2018-03-14T15:33:31.303Z,59.10
2018-03-14T15:35:58.950Z,59.00
2018-03-14T15:38:26.775Z,59.00
2018-03-14T15:40:54.423Z,58.90
2018-03-14T15:46:15.369Z,59.10
2018-03-14T15:48:43.015Z,58.90
2018-03-14T15:51:10.627Z,59.10
2018-03-14T15:53:38.291Z,59.30
2018-03-14T15:56:05.965Z,59.70
2018-03-14T15:58:33.604Z,59.70
2018-03-14T16:01:01.277Z,59.40
2018-03-14T16:03:28.920Z,59.40
2018-03-14T16:05:56.832Z,59.60
2018-03-14T16:08:24.569Z,59.80
2018-03-14T16:13:50.982Z,59.60
2018-03-14T16:16:18.839Z,59.50
2018-03-14T16:18:46.793Z,59.40
2018-03-14T16:21:15.454Z,59.60
2018-03-14T16:23:43.167Z,59.50
2018-03-14T16:26:10.962Z,59.50
2018-03-14T16:28:38.604Z,59.50
2018-03-14T16:31:07.065Z,59.90
2018-03-14T16:33:34.730Z,60.00
2018-03-14T16:36:02.701Z,59.90
2018-03-14T16:38:31.409Z,60.80
2018-03-14T16:40:59.266Z,60.80
2018-03-14T16:43:27.132Z,61.10
2018-03-14T16:45:55.039Z,61.10
2018-03-14T16:48:37.740Z,61.40
2018-03-14T16:51:05.526Z,61.70
2018-03-14T16:53:33.426Z,61.30
2018-03-14T16:56:01.268Z,61.50
2018-03-14T16:58:29.077Z,61.70
2018-03-14T17:00:56.959Z,62.30
2018-03-14T17:03:24.677Z,62.80
2018-03-14T17:05:52.339Z,63.10
2018-03-14T17:08:20.758Z,63.70
2018-03-14T17:10:49.192Z,63.60
2018-03-14T17:13:16.893Z,63.50
2018-03-14T17:15:44.521Z,63.70
2018-03-14T17:18:12.939Z,64.40
2018-03-14T17:20:41.366Z,65.20
2018-03-14T17:23:09.079Z,65.10
2018-03-14T17:25:36.791Z,65.40
2018-03-14T17:28:04.452Z,65.60
2018-03-14T17:30:32.107Z,65.90
2018-03-14T17:32:59.737Z,66.60
2018-03-14T17:35:27.399Z,66.90
2018-03-14T17:37:55.033Z,67.50
2018-03-14T17:40:22.691Z,67.80
2018-03-14T17:42:50.319Z,67.90
2018-03-14T17:45:18.748Z,69.50
2018-03-14T17:47:46.390Z,69.50
2018-03-14T17:50:14.071Z,70.00
2018-03-14T17:52:41.708Z,70.60
2018-03-14T17:55:09.415Z,71.00
2018-03-14T17:57:37.078Z,71.30
2018-03-14T18:00:04.768Z,71.40
2018-03-14T18:02:32.408Z,71.60
2018-03-14T18:05:00.055Z,71.60
2018-03-14T18:07:27.705Z,71.70
2018-03-14T18:09:56.147Z,71.50
2018-03-14T18:12:23.771Z,71.50
2018-03-14T18:14:51.412Z,71.40
2018-03-14T18:17:19.065Z,71.30
2018-03-14T18:19:46.727Z,71.20
2018-03-14T18:22:14.388Z,71.20
2018-03-14T18:24:42.034Z,71.20
2018-03-14T18:27:09.748Z,71.30
2018-03-14T18:29:37.403Z,71.30
2018-03-14T18:32:05.833Z,71.60
2018-03-14T18:34:33.446Z,71.50
2018-03-14T18:37:01.134Z,71.70
2018-03-14T18:39:28.801Z,71.90
2018-03-14T18:41:56.536Z,72.10
2018-03-14T18:44:24.179Z,72.10
2018-03-14T18:46:51.819Z,72.40
2018-03-14T18:49:20.248Z,73.10
2018-03-14T18:51:47.904Z,73.10
2018-03-14T18:54:16.359Z,73.40
2018-03-14T18:56:43.999Z,73.40
2018-03-14T18:59:12.479Z,73.80
2018-03-14T19:01:40.827Z,74.00
2018-03-14T19:04:08.479Z,74.00
2018-03-14T19:06:36.103Z,74.20
2018-03-14T19:09:03.853Z,74.30
2018-03-14T19:11:31.487Z,74.50
2018-03-14T19:13:59.151Z,74.60
2018-03-14T19:16:27.563Z,75.10
2018-03-14T19:18:56.013Z,75.40
2018-03-14T19:21:24.404Z,75.80
2018-03-14T19:23:52.039Z,75.70
2018-03-14T19:26:19.693Z,76.10
2018-03-14T19:28:47.344Z,76.40
2018-03-14T19:31:14.965Z,76.70
2018-03-14T19:33:42.651Z,76.90
2018-03-14T19:36:10.279Z,77.20
2018-03-14T19:38:38.772Z,77.50
2018-03-14T19:41:06.384Z,77.50
2018-03-14T19:43:34.039Z,77.80
2018-03-14T19:46:01.769Z,77.80
2018-03-14T19:48:29.455Z,78.00
2018-03-14T19:50:57.876Z,78.30
2018-03-14T19:53:25.525Z,78.20
2018-03-14T19:55:53.200Z,78.40
2018-03-14T19:58:20.855Z,78.60
2018-03-14T20:00:48.555Z,78.80
2018-03-14T20:03:16.256Z,78.90
2018-03-14T20:05:43.859Z,79.10
2018-03-14T20:08:11.549Z,79.30
2018-03-14T20:10:39.327Z,79.50
2018-03-14T20:13:07.487Z,79.70
2018-03-14T20:15:35.111Z,79.80
2018-03-14T20:18:02.768Z,80.00
2018-03-14T20:20:31.212Z,80.30
2018-03-14T20:22:58.871Z,80.30
2018-03-14T20:25:26.627Z,80.50
2018-03-14T20:27:54.308Z,80.70
2018-03-14T20:30:21.955Z,80.80
2018-03-14T20:32:49.596Z,80.90
2018-03-14T20:38:22.426Z,81.30
2018-03-14T20:40:50.099Z,81.50
2018-03-14T20:43:17.744Z,81.50
2018-03-14T20:45:45.381Z,81.50
2018-03-14T20:48:13.025Z,81.30
2018-03-14T20:50:41.760Z,81.80
2018-03-14T20:53:09.394Z,81.80
2018-03-14T20:55:37.072Z,82.10
2018-03-14T20:58:04.779Z,82.10
2018-03-14T21:00:32.396Z,82.20
2018-03-14T21:03:00.067Z,82.30
2018-03-14T21:05:27.695Z,82.50
2018-03-14T21:07:55.388Z,82.60
2018-03-14T21:21:55.562Z,83.10
2018-03-14T21:24:23.329Z,83.30
2018-03-14T21:26:51.055Z,83.30
2018-03-14T21:29:18.679Z,83.50
2018-03-14T21:31:46.331Z,83.60
2018-03-14T21:34:15.083Z,83.70
2018-03-14T21:36:43.510Z,83.70
2018-03-14T21:39:11.966Z,83.70
2018-03-14T21:41:39.735Z,83.70
2018-03-14T21:44:07.480Z,83.90
2018-03-14T21:46:36.096Z,84.00
2018-03-14T21:49:04.828Z,84.00
2018-03-14T21:51:34.964Z,84.00
2018-03-14T21:54:26.196Z,84.20
2018-03-14T21:56:54.054Z,83.80
2018-03-14T21:59:21.987Z,84.20
2018-03-14T22:01:49.914Z,84.40
2018-03-14T22:04:17.678Z,84.50
2018-03-14T22:06:50.279Z,84.50
2018-03-14T22:09:18.128Z,84.70
2018-03-14T22:11:45.887Z,84.80
2018-03-14T22:14:14.622Z,85.00
2018-03-14T22:16:42.395Z,85.00
2018-03-14T22:19:10.928Z,85.30
2018-03-14T22:21:38.755Z,85.20
2018-03-14T22:24:06.508Z,85.30
2018-03-14T22:26:35.151Z,85.20
2018-03-14T22:29:02.956Z,85.20
2018-03-14T22:31:30.605Z,85.30
2018-03-14T22:33:58.275Z,85.40
2018-03-14T22:36:25.911Z,85.50
2018-03-14T22:38:53.577Z,85.50
2018-03-14T22:41:21.214Z,85.60
2018-03-14T22:43:49.620Z,86.60
2018-03-14T22:46:18.087Z,85.80
2018-03-14T22:48:45.727Z,85.80
2018-03-14T22:51:13.435Z,85.90
2018-03-14T22:53:41.097Z,86.00
2018-03-14T22:56:09.531Z,86.20
2018-03-14T22:58:37.197Z,86.10
2018-03-14T23:01:04.846Z,86.10
2018-03-14T23:03:32.522Z,86.10
2018-03-14T23:06:00.159Z,86.20
2018-03-14T23:08:28.571Z,86.30
2018-03-14T23:10:56.198Z,86.30
2018-03-14T23:13:23.865Z,86.30
2018-03-14T23:15:51.539Z,86.40
2018-03-14T23:18:19.196Z,86.50
2018-03-14T23:20:47.603Z,86.60
2018-03-14T23:23:16.335Z,86.60
2018-03-14T23:25:43.987Z,86.50
2018-03-14T23:28:12.426Z,86.70
2018-03-14T23:30:40.089Z,86.70
2018-03-14T23:33:08.471Z,86.80
2018-03-14T23:35:36.163Z,86.80
2018-03-14T23:38:03.829Z,86.70
2018-03-14T23:40:31.479Z,86.80
2018-03-14T23:42:59.114Z,86.80
2018-03-14T23:45:26.775Z,86.80
2018-03-14T23:47:54.470Z,86.90
2018-03-14T23:50:22.092Z,86.90
2018-03-14T23:52:49.775Z,86.90
2018-03-14T23:55:17.442Z,87.00
2018-03-14T23:57:45.144Z,87.00
